Time;durP1;ratioP1;P1;durP2;ratioP2;P2;SDS_P1;SDS_P2;PMS_P1;PMS_P2;Temp;Humidity;BMP_temperature;BMP_pressure;BME280_temperature;BME280_humidity;BME280_pressure;Samples;Min_cycle;Max_cycle;Signal;HPM_P1;HPM_P2
2022/03/29 05:00:52;;;;;;;11.80;10.63;;;11.00;92.80;;;;;;1706079;29;20187;-72
2022/03/29 05:01:43;;;;;;;12.20;9.70;;;11.00;92.80;;;;;;1706902;29;20584;-73
2022/03/29 05:02:36;;;;;;;13.90;10.38;;;11.00;93.10;;;;;;1706827;28;20207;-73
2022/03/29 05:03:26;;;;;;;11.45;10.27;;;11.00;93.30;;;;;;1706647;29;20241;-72
2022/03/29 05:04:18;;;;;;;12.20;11.00;;;11.00;93.40;;;;;;1706885;29;20678;-73
2022/03/29 05:05:10;;;;;;;11.95;10.75;;;11.00;93.40;;;;;;1706838;29;20665;-73
2022/03/29 05:06:02;;;;;;;11.10;10.00;;;11.00;93.40;;;;;;1706504;29;20213;-73
2022/03/29 05:06:53;;;;;;;10.90;9.80;;;11.00;93.30;;;;;;1706386;29;20248;-72
2022/03/29 05:07:45;;;;;;;12.10;10.83;;;11.00;93.40;;;;;;1706592;29;20194;-72
2022/03/29 05:08:35;;;;;;;12.27;11.02;;;11.00;93.60;;;;;;1706240;28;20245;-72
2022/03/29 05:09:28;;;;;;;13.87;11.00;;;11.00;93.70;;;;;;1706894;28;20213;-71
2022/03/29 05:10:18;;;;;;;14.45;10.18;;;11.00;93.80;;;;;;1707278;28;20206;-72
2022/03/29 05:11:10;;;;;;;13.40;11.73;;;11.00;93.80;;;;;;1707450;28;20203;-73
2022/03/29 05:12:01;;;;;;;14.07;12.02;;;11.00;94.10;;;;;;1707342;28;20681;-72
2022/03/29 05:12:52;;;;;;;13.37;11.07;;;11.00;93.80;;;;;;1706806;28;20552;-73
2022/03/29 05:13:43;;;;;;;13.80;10.80;;;11.00;93.70;;;;;;1707228;28;20207;-72
2022/03/29 05:14:35;;;;;;;11.67;10.43;;;11.00;93.70;;;;;;1707211;28;20209;-72
2022/03/29 05:15:26;;;;;;;12.82;11.40;;;11.00;93.80;;;;;;1707286;28;20229;-72
2022/03/29 05:16:19;;;;;;;12.37;11.00;;;11.00;93.80;;;;;;1707247;28;20229;-72
2022/03/29 05:17:10;;;;;;;11.73;10.52;;;11.00;93.90;;;;;;1707246;28;20741;-71
2022/03/29 05:18:02;;;;;;;13.60;11.67;;;11.00;93.90;;;;;;1707085;28;20729;-72
2022/03/29 05:18:53;;;;;;;14.13;11.30;;;11.00;93.90;;;;;;1707101;28;20454;-71
2022/03/29 05:19:45;;;;;;;13.70;10.97;;;11.00;94.10;;;;;;1707091;28;20213;-72
2022/03/29 05:20:36;;;;;;;13.85;11.80;;;11.00;94.10;;;;;;1707254;28;20234;-71
2022/03/29 05:21:30;;;;;;;13.13;11.37;;;11.00;94.40;;;;;;1707336;28;20211;-71
2022/03/29 05:22:20;;;;;;;13.85;12.05;;;11.00;94.60;;;;;;1707205;28;20450;-72
2022/03/29 05:23:12;;;;;;;14.40;11.53;;;11.00;94.50;;;;;;1707276;28;20218;-71
2022/03/29 05:24:03;;;;;;;12.60;11.13;;;11.00;94.50;;;;;;1707246;28;20608;-71
2022/03/29 05:24:55;;;;;;;13.55;11.57;;;11.00;94.50;;;;;;1707185;28;20662;-71
2022/03/29 05:25:46;;;;;;;12.23;11.02;;;11.00;94.40;;;;;;1706989;28;20198;-69
2022/03/29 05:26:38;;;;;;;11.90;10.73;;;11.00;94.40;;;;;;1710432;28;20204;-71
2022/03/29 05:27:28;;;;;;;11.52;10.32;;;11.00;94.40;;;;;;1707796;28;20570;-75
2022/03/29 05:28:20;;;;;;;14.33;10.90;;;11.00;94.50;;;;;;1709635;28;20274;-73
2022/03/29 05:29:11;;;;;;;16.95;10.95;;;11.10;94.60;;;;;;1713811;28;20206;-71
2022/03/29 05:30:03;;;;;;;15.40;11.50;;;11.10;94.60;;;;;;1713797;28;20205;-72
2022/03/29 05:30:54;;;;;;;14.98;11.60;;;11.10;94.40;;;;;;1713776;28;20312;-72
2022/03/29 05:31:47;;;;;;;12.07;10.87;;;11.10;94.20;;;;;;1713755;28;20272;-72
2022/03/29 05:32:38;;;;;;;12.27;11.05;;;11.10;94.00;;;;;;1713695;28;20209;-73
2022/03/29 05:33:30;;;;;;;11.85;10.60;;;11.00;93.70;;;;;;1709366;28;20523;-71
2022/03/29 05:34:21;;;;;;;13.00;10.35;;;11.00;93.40;;;;;;1708155;29;20229;-72
2022/03/29 05:35:13;;;;;;;11.27;10.17;;;11.00;93.20;;;;;;1708436;29;20805;-71
2022/03/29 05:36:05;;;;;;;11.38;10.20;;;11.00;93.20;;;;;;1709175;28;20208;-72
2022/03/29 05:36:56;;;;;;;13.07;10.68;;;10.90;93.20;;;;;;1715136;28;20208;-72
2022/03/29 05:37:47;;;;;;;12.80;10.43;;;10.90;93.30;;;;;;1708254;29;20195;-72
2022/03/29 05:38:39;;;;;;;11.40;10.40;;;10.90;93.50;;;;;;1708292;28;20273;-71
2022/03/29 05:39:29;;;;;;;11.40;10.30;;;10.90;93.40;;;;;;1708271;28;20234;-71
2022/03/29 05:40:21;;;;;;;11.77;10.60;;;10.90;93.30;;;;;;1708501;28;20202;-72
2022/03/29 05:41:15;;;;;;;11.95;10.70;;;10.90;93.30;;;;;;1708416;28;20214;-71
2022/03/29 05:42:07;;;;;;;13.27;11.25;;;10.90;93.40;;;;;;1708458;28;20202;-71
2022/03/29 05:42:58;;;;;;;12.13;10.85;;;11.00;93.60;;;;;;1708306;28;20226;-71
2022/03/29 05:43:51;;;;;;;11.77;10.13;;;11.00;93.70;;;;;;1708375;28;20202;-72
2022/03/29 05:44:43;;;;;;;12.90;11.02;;;11.00;93.80;;;;;;1707884;29;20241;-72
2022/03/29 05:45:35;;;;;;;11.98;10.75;;;11.10;93.60;;;;;;1708599;28;20202;-72
2022/03/29 05:48:52;;;;;;;12.50;11.20;;;11.10;93.60;;;;;;1707203;29;20210;-71
2022/03/29 05:49:43;;;;;;;13.93;11.35;;;11.10;93.70;;;;;;1707836;29;20666;-72
2022/03/29 05:50:35;;;;;;;16.90;11.40;;;11.20;93.80;;;;;;1705728;29;20688;-73
2022/03/29 05:51:28;;;;;;;11.93;9.93;;;11.20;93.70;;;;;;1707214;29;20202;-73
2022/03/29 05:52:20;;;;;;;12.88;11.55;;;11.20;93.80;;;;;;1707332;29;20205;-71
2022/03/29 05:53:11;;;;;;;11.63;10.38;;;11.20;93.90;;;;;;1711937;28;20225;-72
2022/03/29 05:54:04;;;;;;;11.68;10.48;;;11.20;93.90;;;;;;1710154;28;20286;-72
2022/03/29 05:54:56;;;;;;;12.18;10.45;;;11.20;93.80;;;;;;1707781;28;20202;-72
2022/03/29 05:55:48;;;;;;;12.88;11.32;;;11.20;93.70;;;;;;1708158;28;20249;-72
2022/03/29 05:56:39;;;;;;;11.63;10.52;;;11.20;93.70;;;;;;1707644;28;20206;-72
2022/03/29 05:57:31;;;;;;;13.70;10.93;;;11.20;93.70;;;;;;1707705;29;20265;-71
2022/03/29 05:58:23;;;;;;;11.80;10.60;;;11.20;93.90;;;;;;1707998;29;20837;-72
2022/03/29 05:59:15;;;;;;;11.90;10.70;;;11.20;94.10;;;;;;1708251;28;20260;-71
2022/03/29 06:00:10;;;;;;;11.88;10.68;;;11.30;94.10;;;;;;1708395;29;20206;-71
2022/03/29 06:01:02;;;;;;;11.73;10.52;;;11.30;94.10;;;;;;1708297;29;20237;-72
2022/03/29 06:01:53;;;;;;;12.52;11.23;;;11.30;94.10;;;;;;1708324;29;20375;-72
2022/03/29 06:02:46;;;;;;;12.30;11.20;;;11.30;94.00;;;;;;1708253;29;20217;-72
2022/03/29 06:03:37;;;;;;;14.32;11.27;;;11.40;94.00;;;;;;1708330;29;20230;-72
2022/03/29 06:04:29;;;;;;;12.13;10.88;;;11.40;94.00;;;;;;1708338;29;20205;-72
2022/03/29 06:05:20;;;;;;;13.85;11.45;;;11.40;93.90;;;;;;1709676;28;20239;-72
2022/03/29 06:06:13;;;;;;;13.65;11.32;;;11.50;93.80;;;;;;1712746;28;20236;-73
2022/03/29 06:07:04;;;;;;;11.90;10.70;;;11.50;93.60;;;;;;1708268;29;20289;-72
2022/03/29 06:07:56;;;;;;;15.13;11.35;;;11.50;93.80;;;;;;1708378;29;20281;-72
2022/03/29 06:08:47;;;;;;;12.30;10.65;;;11.50;93.70;;;;;;1707934;29;20213;-72
2022/03/29 06:09:39;;;;;;;11.13;9.95;;;11.60;93.50;;;;;;1708232;29;20199;-72
2022/03/29 06:10:30;;;;;;;13.23;10.63;;;11.60;93.30;;;;;;1708300;28;20685;-72
2022/03/29 06:11:22;;;;;;;14.03;10.93;;;11.60;93.40;;;;;;1708242;29;20626;-72
2022/03/29 06:12:12;;;;;;;12.95;11.65;;;11.70;93.60;;;;;;1708292;29;20240;-72
2022/03/29 06:13:04;;;;;;;12.67;11.33;;;11.70;93.70;;;;;;1707986;29;20237;-72
2022/03/29 06:13:56;;;;;;;13.18;11.77;;;11.80;93.50;;;;;;1708146;29;20242;-73
2022/03/29 06:14:47;;;;;;;12.07;9.90;;;11.80;93.40;;;;;;1708266;29;20206;-72
2022/03/29 06:15:38;;;;;;;13.57;12.00;;;11.80;93.30;;;;;;1710510;28;20198;-71
2022/03/29 06:16:30;;;;;;;12.50;11.20;;;11.90;93.40;;;;;;1708228;29;20209;-72
2022/03/29 06:17:20;;;;;;;12.05;10.82;;;11.90;92.90;;;;;;1708332;29;20249;-72
2022/03/29 06:18:13;;;;;;;11.43;10.33;;;11.90;93.00;;;;;;1707856;29;20202;-72
2022/03/29 06:19:04;;;;;;;13.63;10.63;;;11.90;92.60;;;;;;1708193;29;20206;-72
2022/03/29 06:19:56;;;;;;;12.60;10.40;;;11.90;92.10;;;;;;1708078;29;20203;-72
2022/03/29 06:20:47;;;;;;;12.25;11.02;;;11.90;91.80;;;;;;1708243;29;20577;-72
2022/03/29 06:21:40;;;;;;;11.87;10.67;;;11.80;91.60;;;;;;1708239;29;20569;-72
2022/03/29 06:22:31;;;;;;;13.73;11.18;;;11.80;91.50;;;;;;1708144;29;20449;-71
2022/03/29 06:23:23;;;;;;;11.87;10.67;;;11.70;91.60;;;;;;1708151;29;20226;-72
2022/03/29 06:24:13;;;;;;;12.75;10.35;;;11.70;91.70;;;;;;1708206;29;20207;-71
2022/03/29 06:25:06;;;;;;;13.13;11.10;;;11.70;91.70;;;;;;1708148;29;20212;-71
2022/03/29 06:25:57;;;;;;;13.80;10.77;;;11.70;91.60;;;;;;1709155;28;20864;-71
2022/03/29 06:26:49;;;;;;;12.03;10.83;;;11.70;91.70;;;;;;1708094;29;20564;-72
2022/03/29 06:27:40;;;;;;;11.52;10.45;;;11.70;91.80;;;;;;1708108;29;20258;-71
2022/03/29 06:28:32;;;;;;;12.30;10.45;;;11.70;91.90;;;;;;1707776;29;20199;-71
2022/03/29 06:29:22;;;;;;;11.68;10.48;;;11.70;92.00;;;;;;1708078;29;20314;-72
2022/03/29 06:30:14;;;;;;;11.80;10.70;;;11.70;92.10;;;;;;1708179;29;20206;-72
2022/03/29 06:31:07;;;;;;;13.38;10.27;;;11.70;92.30;;;;;;1707900;29;20242;-71
2022/03/29 06:31:59;;;;;;;13.77;11.10;;;11.80;92.60;;;;;;1707854;28;20198;-72
2022/03/29 06:32:52;;;;;;;13.75;11.90;;;11.80;92.70;;;;;;1707902;29;20195;-72
2022/03/29 06:33:45;;;;;;;18.40;12.38;;;11.80;92.60;;;;;;1705663;29;20202;-71
2022/03/29 06:34:36;;;;;;;13.75;11.73;;;11.90;92.50;;;;;;1707772;29;20229;-72
2022/03/29 06:35:30;;;;;;;14.10;11.63;;;11.90;92.30;;;;;;1709027;28;20233;-71
2022/03/29 06:36:22;;;;;;;14.00;11.85;;;11.90;92.40;;;;;;1711260;28;20500;-72
2022/03/29 06:37:13;;;;;;;18.05;12.77;;;11.90;92.20;;;;;;1708035;29;20214;-70
2022/03/29 06:38:07;;;;;;;13.93;11.70;;;11.90;91.90;;;;;;1707685;29;20293;-72
2022/03/29 06:38:57;;;;;;;16.15;13.15;;;11.90;91.70;;;;;;1708067;28;20234;-71
2022/03/29 06:39:49;;;;;;;14.93;12.27;;;11.90;91.80;;;;;;1707953;29;20198;-72
2022/03/29 06:40:40;;;;;;;16.33;12.55;;;11.90;91.60;;;;;;1708127;29;20442;-71
2022/03/29 06:41:32;;;;;;;17.10;12.88;;;11.90;91.60;;;;;;1708013;29;20195;-72
2022/03/29 06:42:23;;;;;;;15.13;13.52;;;11.90;91.70;;;;;;1708094;29;20214;-71
2022/03/29 06:43:15;;;;;;;14.60;12.87;;;11.90;91.70;;;;;;1708050;28;20261;-72
2022/03/29 06:44:07;;;;;;;16.52;13.13;;;11.90;91.70;;;;;;1707927;29;20234;-72
2022/03/29 06:44:58;;;;;;;15.13;13.48;;;11.90;91.60;;;;;;1708064;28;20745;-72
2022/03/29 06:45:49;;;;;;;15.70;12.73;;;11.90;91.70;;;;;;1711663;28;20230;-72
2022/03/29 06:46:42;;;;;;;14.87;12.57;;;11.80;91.70;;;;;;1714686;28;20193;-72
2022/03/29 06:47:33;;;;;;;14.65;12.18;;;11.80;91.70;;;;;;1712864;28;20205;-72
2022/03/29 06:48:25;;;;;;;14.20;12.63;;;11.90;91.80;;;;;;1699361;29;20784;-71
2022/03/29 06:49:17;;;;;;;13.60;12.18;;;11.80;91.70;;;;;;1700893;29;20288;-71
2022/03/29 06:50:10;;;;;;;14.43;12.70;;;11.90;91.80;;;;;;1701069;29;20646;-72
2022/03/29 06:51:01;;;;;;;14.57;12.95;;;11.90;91.90;;;;;;1701304;29;20323;-72
2022/03/29 06:51:52;;;;;;;14.37;12.10;;;11.90;92.10;;;;;;1701361;29;20234;-71
2022/03/29 06:52:45;;;;;;;15.27;12.93;;;11.90;91.80;;;;;;1701312;29;20454;-72
2022/03/29 06:53:38;;;;;;;14.52;12.45;;;11.90;91.80;;;;;;1701761;29;20583;-71
2022/03/29 06:54:30;;;;;;;16.63;12.85;;;11.90;91.70;;;;;;1707514;29;20209;-72
2022/03/29 06:55:22;;;;;;;16.02;12.93;;;11.90;91.60;;;;;;1706901;28;20205;-71
2022/03/29 06:56:15;;;;;;;17.05;12.35;;;12.00;91.60;;;;;;1707322;29;20646;-72
2022/03/29 06:57:08;;;;;;;13.23;11.43;;;12.00;91.40;;;;;;1707855;29;20258;-72
2022/03/29 06:57:59;;;;;;;15.07;12.45;;;12.00;91.60;;;;;;1707766;29;20225;-72
2022/03/29 06:58:51;;;;;;;16.63;12.52;;;12.10;91.60;;;;;;1707308;29;20198;-71
2022/03/29 06:59:42;;;;;;;17.38;13.20;;;12.10;91.40;;;;;;1707936;28;20261;-71
2022/03/29 07:00:34;;;;;;;13.60;12.20;;;12.20;91.30;;;;;;1708495;28;20223;-72
2022/03/29 07:01:25;;;;;;;16.10;12.30;;;12.20;91.30;;;;;;1707808;29;20690;-72
2022/03/29 07:02:16;;;;;;;17.60;12.93;;;12.20;91.30;;;;;;1707950;29;20654;-72
2022/03/29 07:03:07;;;;;;;14.52;12.48;;;12.20;91.20;;;;;;1707731;29;20250;-72
2022/03/29 07:03:59;;;;;;;14.13;12.70;;;12.30;91.10;;;;;;1707553;29;20199;-72
2022/03/29 07:04:51;;;;;;;13.68;12.20;;;12.30;91.00;;;;;;1707842;29;20206;-71
2022/03/29 07:05:46;;;;;;;14.07;11.75;;;12.30;91.10;;;;;;1707976;29;20208;-72
2022/03/29 07:06:37;;;;;;;14.10;12.55;;;12.40;91.10;;;;;;1713157;28;20194;-72
2022/03/29 07:07:29;;;;;;;17.23;12.43;;;12.50;91.10;;;;;;1714580;28;20233;-72
2022/03/29 07:08:20;;;;;;;18.85;12.30;;;12.50;91.10;;;;;;1714088;28;20650;-72
2022/03/29 07:11:33;;;;;;;15.70;12.45;;;12.70;91.00;;;;;;1700462;29;20203;-71
2022/03/29 07:12:24;;;;;;;14.00;12.02;;;12.80;91.00;;;;;;1706388;28;20673;-71
2022/03/29 07:13:15;;;;;;;15.30;12.23;;;12.90;90.70;;;;;;1707607;28;20645;-72
2022/03/29 07:14:07;;;;;;;14.77;12.40;;;12.90;90.30;;;;;;1707623;29;20446;-72
2022/03/29 07:14:59;;;;;;;12.68;11.38;;;12.90;90.00;;;;;;1707726;29;20229;-72
2022/03/29 07:15:50;;;;;;;15.10;12.75;;;13.00;90.00;;;;;;1707751;29;20666;-72
2022/03/29 07:16:43;;;;;;;12.97;11.47;;;13.00;90.30;;;;;;1707783;29;20577;-72
2022/03/29 07:17:33;;;;;;;13.98;12.00;;;13.00;90.00;;;;;;1707832;29;20215;-72
2022/03/29 07:18:25;;;;;;;14.13;12.47;;;13.00;89.40;;;;;;1707366;29;20202;-72
2022/03/29 07:19:16;;;;;;;14.15;12.75;;;13.00;89.40;;;;;;1707593;29;20234;-72
2022/03/29 07:20:10;;;;;;;14.47;11.63;;;13.00;89.40;;;;;;1707576;29;20202;-72
2022/03/29 07:21:02;;;;;;;13.27;11.38;;;13.00;89.20;;;;;;1708551;28;20230;-72
2022/03/29 07:21:53;;;;;;;14.13;11.40;;;13.10;89.10;;;;;;1707238;29;20199;-73
2022/03/29 07:22:45;;;;;;;12.95;11.55;;;13.10;89.00;;;;;;1707781;29;20209;-72
2022/03/29 07:23:36;;;;;;;14.25;11.98;;;13.10;89.20;;;;;;1707712;29;20203;-72
2022/03/29 07:24:27;;;;;;;16.23;11.53;;;13.20;89.70;;;;;;1707809;29;20202;-72
2022/03/29 07:25:20;;;;;;;13.05;11.65;;;13.30;89.90;;;;;;1707916;29;20245;-71
2022/03/29 07:26:12;;;;;;;12.35;11.13;;;13.30;89.90;;;;;;1707773;29;20548;-72
2022/03/29 07:27:03;;;;;;;14.20;11.52;;;13.40;89.80;;;;;;1707912;29;20210;-72
2022/03/29 07:27:54;;;;;;;13.65;12.07;;;13.50;89.50;;;;;;1707827;28;20207;-72
2022/03/29 07:28:46;;;;;;;14.98;12.48;;;13.60;88.90;;;;;;1707276;29;20324;-72
2022/03/29 07:29:39;;;;;;;16.23;12.60;;;13.60;88.80;;;;;;1707585;29;20204;-72
2022/03/29 07:30:34;;;;;;;12.68;11.00;;;13.70;88.70;;;;;;1708662;28;20544;-71
2022/03/29 07:31:24;;;;;;;17.55;12.70;;;13.80;88.70;;;;;;1707902;28;20757;-71
2022/03/29 07:32:16;;;;;;;14.23;11.67;;;13.90;88.60;;;;;;1707885;29;20694;-72
2022/03/29 07:33:10;;;;;;;14.00;12.25;;;13.90;88.50;;;;;;1707754;29;20505;-71
2022/03/29 07:34:01;;;;;;;13.32;11.93;;;14.00;88.20;;;;;;1707584;29;20301;-72
2022/03/29 07:34:54;;;;;;;12.52;10.75;;;14.10;87.80;;;;;;1707671;29;20260;-72
2022/03/29 07:35:47;;;;;;;13.68;12.25;;;14.20;87.40;;;;;;1707799;29;20199;-72
2022/03/29 07:36:38;;;;;;;13.38;11.80;;;14.20;87.50;;;;;;1711021;28;20194;-72
2022/03/29 07:37:30;;;;;;;15.20;12.27;;;14.30;87.20;;;;;;1714441;28;20202;-72
2022/03/29 07:38:20;;;;;;;13.45;12.02;;;14.40;87.00;;;;;;1714125;28;20971;-72
2022/03/29 07:39:12;;;;;;;11.67;10.57;;;14.50;86.90;;;;;;1714109;28;20657;-72
2022/03/29 07:40:04;;;;;;;12.43;11.23;;;14.60;86.80;;;;;;1714289;28;20220;-72
2022/03/29 07:40:57;;;;;;;13.25;11.82;;;14.60;86.70;;;;;;1714249;28;20202;-72
2022/03/29 07:41:47;;;;;;;13.07;11.70;;;14.70;86.50;;;;;;1713739;28;20700;-72
2022/03/29 07:42:39;;;;;;;13.07;11.77;;;14.80;85.80;;;;;;1714370;28;20692;-73
2022/03/29 07:43:31;;;;;;;13.38;11.98;;;14.80;85.60;;;;;;1714405;28;20697;-73
2022/03/29 07:44:23;;;;;;;14.38;11.77;;;14.90;85.40;;;;;;1714018;28;20676;-72
2022/03/29 07:45:15;;;;;;;13.32;11.80;;;15.00;85.30;;;;;;1714365;28;20233;-71
2022/03/29 07:46:06;;;;;;;12.65;11.45;;;15.00;85.20;;;;;;1714307;28;20205;-72
2022/03/29 07:46:57;;;;;;;15.38;12.63;;;15.10;85.20;;;;;;1712484;28;20236;-72
2022/03/29 07:47:52;;;;;;;13.90;12.40;;;15.10;84.80;;;;;;1707648;29;20199;-71
2022/03/29 07:48:42;;;;;;;14.45;11.85;;;15.20;84.40;;;;;;1707210;29;20234;-73
2022/03/29 07:49:34;;;;;;;12.97;11.10;;;15.20;84.20;;;;;;1707371;28;20206;-72
2022/03/29 07:50:26;;;;;;;12.65;11.45;;;15.30;84.10;;;;;;1707500;29;20206;-72
2022/03/29 07:51:19;;;;;;;12.93;11.30;;;15.30;83.80;;;;;;1707561;29;20209;-72
2022/03/29 07:52:10;;;;;;;14.57;13.00;;;15.40;83.80;;;;;;1707494;29;20244;-72
2022/03/29 07:53:03;;;;;;;16.13;11.77;;;15.40;83.80;;;;;;1707613;28;20223;-72
2022/03/29 07:53:54;;;;;;;13.38;11.85;;;15.50;83.90;;;;;;1707456;29;20261;-72
2022/03/29 07:54:45;;;;;;;15.15;11.90;;;15.60;83.60;;;;;;1707225;29;20254;-72
2022/03/29 07:55:39;;;;;;;13.57;12.10;;;15.70;83.10;;;;;;1707619;29;20229;-72
2022/03/29 07:56:30;;;;;;;15.05;11.82;;;15.70;83.20;;;;;;1707278;28;20203;-72
2022/03/29 07:57:22;;;;;;;14.50;11.43;;;15.80;83.20;;;;;;1707210;28;20233;-72
2022/03/29 07:58:12;;;;;;;12.30;10.98;;;15.90;83.00;;;;;;1707266;29;20663;-72
2022/03/29 07:59:04;;;;;;;13.30;11.90;;;16.00;82.80;;;;;;1707110;29;20276;-72
2022/03/29 07:59:55;;;;;;;12.70;11.40;;;16.10;82.40;;;;;;1707229;29;20229;-72
2022/03/29 08:00:50;;;;;;;13.47;11.40;;;16.10;82.10;;;;;;1707970;28;20197;-72
2022/03/29 08:01:41;;;;;;;15.38;12.20;;;16.20;82.00;;;;;;1707344;29;20199;-72
2022/03/29 08:02:32;;;;;;;14.98;11.20;;;16.30;81.70;;;;;;1707473;29;20288;-72
2022/03/29 08:03:27;;;;;;;13.97;11.47;;;16.30;81.50;;;;;;1707537;28;20237;-72
2022/03/29 08:04:18;;;;;;;13.00;11.70;;;16.40;81.50;;;;;;1707354;29;20261;-72
2022/03/29 08:05:09;;;;;;;15.33;11.87;;;16.50;81.60;;;;;;1707511;29;20261;-71
2022/03/29 08:06:02;;;;;;;12.65;11.35;;;16.60;81.60;;;;;;1707821;28;20227;-71
2022/03/29 08:06:55;;;;;;;12.63;11.23;;;16.70;81.10;;;;;;1714207;28;20653;-71
2022/03/29 08:07:45;;;;;;;12.18;10.82;;;16.70;80.80;;;;;;1714074;28;20202;-72
2022/03/29 08:08:37;;;;;;;15.07;11.97;;;16.70;80.80;;;;;;1713929;28;20194;-71
2022/03/29 08:09:28;;;;;;;12.75;11.45;;;16.70;80.90;;;;;;1713829;28;20206;-72
2022/03/29 08:10:20;;;;;;;12.37;11.07;;;16.70;81.10;;;;;;1714101;28;20229;-72
2022/03/29 08:11:11;;;;;;;13.15;11.85;;;16.80;81.40;;;;;;1714098;28;20460;-72
2022/03/29 08:12:04;;;;;;;12.95;11.45;;;16.80;81.30;;;;;;1714133;28;20205;-72
2022/03/29 08:12:56;;;;;;;14.55;12.55;;;16.90;81.40;;;;;;1713993;28;20197;-72
2022/03/29 08:13:47;;;;;;;13.00;11.63;;;17.00;81.30;;;;;;1714108;28;20205;-72
2022/03/29 08:14:38;;;;;;;13.98;12.55;;;17.00;81.10;;;;;;1713903;28;20206;-72
2022/03/29 08:15:30;;;;;;;13.77;12.30;;;17.10;81.00;;;;;;1713931;28;20221;-72
2022/03/29 08:16:21;;;;;;;13.63;12.18;;;17.20;81.20;;;;;;1710889;28;20463;-72
2022/03/29 08:17:12;;;;;;;13.17;11.87;;;17.20;80.80;;;;;;1707481;28;20199;-72
2022/03/29 08:18:03;;;;;;;14.48;10.98;;;17.30;80.60;;;;;;1707101;29;20214;-72
2022/03/29 08:18:56;;;;;;;12.57;11.27;;;17.40;80.00;;;;;;1707422;29;20210;-72
2022/03/29 08:19:46;;;;;;;12.20;10.93;;;17.50;79.70;;;;;;1706992;29;20214;-72
2022/03/29 08:20:40;;;;;;;12.60;11.30;;;17.50;79.30;;;;;;1707427;28;20225;-72
2022/03/29 08:21:49;;;;;;;11.52;10.25;;;17.60;79.20;;;;;;1707340;29;20202;-72
2022/03/29 08:22:44;;;;;;;12.80;11.27;;;17.70;79.10;;;;;;1707405;28;20203;-72
2022/03/29 08:23:36;;;;;;;12.73;11.45;;;17.70;78.20;;;;;;1707530;29;20683;-72
2022/03/29 08:24:27;;;;;;;12.30;11.00;;;17.80;78.40;;;;;;1707202;29;20238;-72
2022/03/29 08:25:19;;;;;;;18.30;11.40;;;17.90;78.30;;;;;;1707288;29;20201;-72
2022/03/29 08:26:10;;;;;;;12.18;10.93;;;17.90;78.30;;;;;;1705549;28;20206;-72
2022/03/29 08:27:02;;;;;;;11.90;10.63;;;18.00;78.50;;;;;;1707397;29;20297;-72
2022/03/29 08:27:55;;;;;;;12.00;10.88;;;18.00;78.30;;;;;;1707214;29;20446;-72
2022/03/29 08:28:47;;;;;;;12.90;11.60;;;18.00;78.40;;;;;;1706993;29;20194;-71
2022/03/29 08:29:38;;;;;;;12.60;11.30;;;18.10;78.50;;;;;;1707080;29;20226;-73
2022/03/29 08:30:31;;;;;;;13.15;11.55;;;18.10;78.50;;;;;;1707137;29;20257;-72
2022/03/29 08:31:22;;;;;;;12.85;11.25;;;18.10;78.50;;;;;;1707334;29;20694;-72
2022/03/29 08:32:14;;;;;;;11.13;10.00;;;18.10;78.10;;;;;;1707295;29;20548;-72
2022/03/29 08:33:05;;;;;;;11.32;10.10;;;18.00;78.10;;;;;;1707370;29;20512;-72
2022/03/29 08:33:57;;;;;;;14.52;10.40;;;18.00;78.20;;;;;;1707595;28;20199;-71
2022/03/29 08:34:47;;;;;;;14.18;11.43;;;17.90;78.00;;;;;;1707023;29;20210;-72
2022/03/29 08:35:39;;;;;;;13.43;10.50;;;17.80;78.40;;;;;;1707298;28;20238;-72
2022/03/29 08:36:30;;;;;;;13.20;11.10;;;17.70;78.50;;;;;;1711617;28;20198;-72
2022/03/29 08:37:23;;;;;;;12.63;11.32;;;17.60;78.50;;;;;;1714112;28;20293;-72
2022/03/29 08:38:15;;;;;;;14.95;10.52;;;17.60;78.80;;;;;;1713658;28;20210;-72
2022/03/29 08:39:08;;;;;;;15.55;11.38;;;17.50;79.10;;;;;;1713853;28;20689;-71
2022/03/29 08:39:59;;;;;;;12.38;10.02;;;17.50;79.50;;;;;;1713475;28;20210;-72
2022/03/29 08:40:55;;;;;;;12.27;10.23;;;17.50;79.90;;;;;;1713933;28;20228;-71
2022/03/29 08:41:56;;;;;;;12.02;10.50;;;17.40;80.50;;;;;;1713901;28;20205;-72
2022/03/29 08:42:49;;;;;;;16.42;10.98;;;17.40;80.90;;;;;;1713784;28;20292;-72
2022/03/29 08:43:41;;;;;;;12.30;10.95;;;17.40;81.00;;;;;;1709915;28;20198;-72
2022/03/29 08:44:32;;;;;;;13.00;11.77;;;17.40;80.60;;;;;;1707081;29;20305;-71
2022/03/29 08:45:26;;;;;;;12.50;11.02;;;17.40;80.50;;;;;;1707088;29;20202;-72
2022/03/29 08:46:18;;;;;;;14.43;9.85;;;17.40;80.50;;;;;;1707391;28;20211;-72
2022/03/29 08:47:11;;;;;;;13.05;10.35;;;17.40;80.70;;;;;;1707264;28;20202;-72
2022/03/29 08:48:01;;;;;;;11.90;10.25;;;17.50;81.00;;;;;;1707064;29;20211;-72
2022/03/29 08:48:53;;;;;;;15.80;10.80;;;17.50;81.20;;;;;;1707148;29;20205;-73
2022/03/29 08:49:45;;;;;;;11.60;10.50;;;17.60;80.90;;;;;;1707028;29;20257;-72
2022/03/29 08:50:38;;;;;;;13.25;11.27;;;17.60;80.70;;;;;;1706970;29;20253;-72
2022/03/29 08:51:29;;;;;;;13.02;10.52;;;17.70;80.40;;;;;;1706931;29;20569;-72
2022/03/29 08:52:21;;;;;;;12.93;10.80;;;17.80;80.30;;;;;;1706814;28;20194;-72
2022/03/29 08:53:16;;;;;;;11.88;10.55;;;17.90;80.60;;;;;;1707176;28;20861;-71
2022/03/29 08:54:07;;;;;;;11.10;10.00;;;18.00;80.40;;;;;;1709095;28;20293;-72
2022/03/29 08:54:59;;;;;;;11.75;10.45;;;18.20;80.00;;;;;;1706820;29;20222;-72
2022/03/29 08:55:51;;;;;;;12.40;10.65;;;18.40;80.00;;;;;;1707036;28;20223;-71
2022/03/29 08:56:42;;;;;;;13.32;11.07;;;18.60;79.40;;;;;;1707107;29;20230;-71
2022/03/29 08:57:34;;;;;;;13.10;11.00;;;18.80;79.00;;;;;;1707161;28;20198;-71
2022/03/29 08:58:25;;;;;;;14.57;11.20;;;19.00;78.10;;;;;;1706865;28;20201;-71
2022/03/29 08:59:17;;;;;;;14.27;11.30;;;19.20;77.60;;;;;;1707039;28;20213;-71
2022/03/29 09:00:08;;;;;;;11.77;10.55;;;19.30;77.30;;;;;;1706779;28;20532;-71
2022/03/29 09:01:00;;;;;;;13.55;12.05;;;19.50;76.80;;;;;;1707599;28;20192;-71
2022/03/29 09:01:51;;;;;;;14.23;11.15;;;19.70;75.90;;;;;;1707087;28;20202;-72
2022/03/29 09:02:43;;;;;;;11.90;10.63;;;19.90;75.60;;;;;;1707092;28;20632;-72
2022/03/29 09:03:34;;;;;;;11.68;10.52;;;20.20;75.10;;;;;;1707137;29;20659;-71
2022/03/29 09:04:29;;;;;;;12.37;10.07;;;20.40;74.90;;;;;;1706910;29;20628;-72
2022/03/29 09:05:24;;;;;;;12.90;11.02;;;20.60;74.60;;;;;;1706946;28;20662;-72
2022/03/29 09:06:16;;;;;;;16.15;12.60;;;20.80;74.00;;;;;;1709072;28;20205;-72
2022/03/29 09:07:06;;;;;;;13.73;10.45;;;20.90;73.20;;;;;;1704612;29;20213;-72
2022/03/29 09:08:00;;;;;;;14.87;11.33;;;21.00;72.90;;;;;;1707066;28;20206;-72
2022/03/29 09:08:52;;;;;;;12.30;11.00;;;21.00;72.80;;;;;;1707309;28;20786;-73
2022/03/29 09:09:44;;;;;;;13.20;10.60;;;21.00;73.00;;;;;;1708475;28;20222;-72
2022/03/29 09:10:40;;;;;;;11.60;10.50;;;21.00;72.90;;;;;;1708321;28;20199;-72
2022/03/29 09:11:43;;;;;;;11.13;9.93;;;20.90;72.80;;;;;;1706457;29;20670;-73
2022/03/29 09:12:34;;;;;;;15.75;10.65;;;20.80;72.90;;;;;;1706790;29;20249;-72
2022/03/29 09:13:31;;;;;;;12.47;10.80;;;20.70;72.80;;;;;;1708271;29;20222;-71
2022/03/29 09:14:22;;;;;;;11.40;10.18;;;20.60;72.90;;;;;;1708651;28;20438;-71
2022/03/29 09:15:14;;;;;;;11.60;10.40;;;20.50;72.90;;;;;;1708236;29;20265;-71
2022/03/29 09:16:07;;;;;;;11.10;10.00;;;20.40;72.90;;;;;;1708139;29;20585;-72
2022/03/29 09:16:59;;;;;;;11.80;10.60;;;20.30;73.10;;;;;;1708418;28;20198;-72
2022/03/29 09:17:50;;;;;;;11.35;10.20;;;20.20;73.10;;;;;;1708387;29;20198;-72
2022/03/29 09:18:55;;;;;;;12.20;10.43;;;20.20;73.30;;;;;;1708209;29;20226;-72
2022/03/29 09:19:49;;;;;;;12.15;10.40;;;20.20;73.40;;;;;;1708463;28;20813;-71
2022/03/29 09:20:41;;;;;;;13.00;10.10;;;20.30;73.20;;;;;;1708326;28;20194;-71
2022/03/29 09:21:41;;;;;;;11.20;10.07;;;20.40;73.50;;;;;;1708315;28;20697;-72
2022/03/29 09:22:39;;;;;;;12.45;10.35;;;20.50;73.80;;;;;;1706636;29;20573;-71
2022/03/29 09:23:30;;;;;;;15.73;9.95;;;20.70;73.30;;;;;;1706414;29;20199;-71
2022/03/29 09:24:23;;;;;;;11.70;10.55;;;20.90;72.80;;;;;;1708462;29;20690;-72
2022/03/29 09:25:17;;;;;;;12.10;10.05;;;21.10;72.70;;;;;;1708320;28;20202;-72
2022/03/29 09:26:25;;;;;;;13.40;11.52;;;21.40;72.60;;;;;;1705724;29;21363;-72
2022/03/29 09:27:17;;;;;;;13.00;11.10;;;21.90;72.20;;;;;;1707180;29;20281;-72
2022/03/29 09:28:12;;;;;;;11.02;9.98;;;22.30;71.30;;;;;;1705440;29;20602;-72
2022/03/29 09:29:10;;;;;;;11.82;9.65;;;22.80;70.60;;;;;;1708720;28;20213;-72
2022/03/29 09:30:11;;;;;;;12.52;11.13;;;23.30;69.90;;;;;;1708400;28;20678;-71